This is the latest recevied weather packets stored in our database for station/object KF7OVD-WX. If no packets are shown the sender has not sent any weather packets the latest 10 day(s).
| Time | Temp. | Humidity | Pressure | Rain* | Wind** | Luminosity | Snow |
|---|---|---|---|---|---|---|---|
| 1777589732 | 22.78° C | 23% | 1018.5 hPa | 0 mm | - | - | - |
| 1777588560 | 22.78° C | 24% | 1018.7 hPa | 0 mm | - | - | - |
| 1777585519 | 22.78° C | 24% | 1019.3 hPa | 0 mm | - | - | - |
| 1777585216 | 23.33° C | 25% | 1019.3 hPa | 0 mm | - | - | - |
| 1777584024 | 22.22° C | 26% | 1019.6 hPa | 0 mm | - | - | - |
| 1777583721 | 20.56° C | 27% | 1019.6 hPa | 0 mm | - | - | - |
| 1777582832 | 23.33° C | 24% | 1019.6 hPa | 0 mm | - | - | - |
| 1777580127 | 22.78° C | 24% | 1020 hPa | 0 mm | - | - | - |
| 1777579824 | 23.33° C | 25% | 1020.2 hPa | 0 mm | - | - | - |
| 1777578016 | 22.22° C | 25% | 1020.5 hPa | 0 mm | - | - | - |
| 1777572020 | 20.56° C | 30% | 1021.7 hPa | 0 mm | - | - | - |
| 1777571118 | 19.44° C | 30% | 1021.8 hPa | 0 mm | - | - | - |
| 1777569925 | 18.89° C | 31% | 1021.9 hPa | 0 mm | - | - | - |
| 1777569663 | 18.89° C | 31% | 1021.9 hPa | 0 mm | - | - | - |
| 1777567827 | 18.33° C | 33% | 1021.9 hPa | 0 mm | - | - | - |
| 1777567221 | 17.78° C | 35% | 1022 hPa | 0 mm | - | - | - |
| 1777565122 | 16.11° C | 39% | 1022.2 hPa | 0 mm | - | - | - |
| 1777563918 | 15° C | 40% | 1022.4 hPa | 0 mm | - | - | - |
| 1777553748 | -2.22° C | 87% | 1022 hPa | 0 mm | - | - | - |
| 1777551324 | -2.22° C | 87% | 1022 hPa | 0 mm | - | - | - |
| 1777550417 | -2.22° C | 88% | 1021.9 hPa | 0 mm | - | - | - |
| 1777549818 | -2.22° C | 88% | 1021.9 hPa | 0 mm | - | - | - |
| 1777547719 | -2.78° C | 86% | 1022 hPa | 0 mm | - | - | - |
| 1777545922 | -2.22° C | 86% | 1022.1 hPa | 0 mm | - | - | - |
| 1777544427 | -2.22° C | 83% | 1022.1 hPa | 0 mm | - | - | - |
* Rain latest hour (hover to see other rain measurements)
** Current wind speed in m/s (hover to see current wind gust speed)